Time;durP1;ratioP1;P1;durP2;ratioP2;P2;SDS_P1;SDS_P2;PMS_P1;PMS_P2;Temp;Humidity;BMP_temperature;BMP_pressure;BME280_temperature;BME280_humidity;BME280_pressure;Samples;Min_cycle;Max_cycle;Signal;HPM_P1;HPM_P2
2021/01/26 00:02:22;;;;;;;;;;;;;;;-144.34;100.00;60189.88;4977607;28;19914;-90
2021/01/26 00:04:49;;;;;;;;;;;;;;;-144.34;100.00;60189.88;4977934;28;20411;-90
2021/01/26 00:07:14;;;;;;;;;;;;;;;-144.34;100.00;60189.88;4977940;28;20386;-90
2021/01/26 00:09:39;;;;;;;;;;;;;;;-144.34;100.00;60189.88;4977908;28;19914;-90
2021/01/26 00:12:05;;;;;;;;;;;;;;;-144.34;100.00;60189.88;4977826;28;19944;-90
2021/01/26 00:14:31;;;;;;;;;;;;;;;-144.34;100.00;60189.88;4961540;28;19914;-91
2021/01/26 00:16:57;;;;;;;;;;;;;;;-144.34;100.00;60189.88;4977388;28;19917;-90
2021/01/26 00:19:22;;;;;;;;;;;;;;;-144.34;100.00;60189.88;4977294;28;19914;-90
2021/01/26 00:25:31;;;;;;;;;;;;;;;-144.34;100.00;60189.88;4994982;28;19920;-91
2021/01/26 00:28:00;;;;;;;;;;;;;;;-144.34;100.00;60189.88;4957564;29;19914;-90
2021/01/26 00:30:27;;;;;;;;;;;;;;;-144.34;100.00;60189.88;4947545;29;19970;-91
2021/01/26 00:32:58;;;;;;;;;;;;;;;-144.34;100.00;60189.88;4947735;29;19914;-90
2021/01/26 00:35:41;;;;;;;;;;;;;;;-144.34;100.00;60189.88;4945534;28;20287;-90
2021/01/26 00:38:06;;;;;;;;;;;;;;;-144.34;100.00;60189.88;4940753;29;19953;-89
2021/01/26 00:40:32;;;;;;;;;;;;;;;-144.34;100.00;60189.88;4938001;29;19922;-89
2021/01/26 00:42:57;;;;;;;;;;;;;;;-144.34;100.00;60189.88;4937446;29;20369;-90
2021/01/26 00:45:23;;;;;;;;;;;;;;;-144.34;100.00;60189.88;4937463;28;20001;-90
2021/01/26 00:47:49;;;;;;;;;;;;;;;-144.34;100.00;60189.88;4937593;29;20341;-89
2021/01/26 00:50:14;;;;;;;;;;;;;;;-144.34;100.00;60189.88;4938586;29;19915;-89
2021/01/26 00:52:40;;;;;;;;;;;;;;;-144.34;100.00;60189.88;4946133;28;19929;-89
2021/01/26 00:55:06;;;;;;;;;;;;;;;-144.34;100.00;60189.88;4961018;28;20014;-90
2021/01/26 00:57:31;;;;;;;;;;;;;;;-144.34;100.00;60189.88;4961670;28;19914;-90
2021/01/26 00:59:57;;;;;;;;;;;;;;;-144.34;100.00;60189.88;4963051;28;20273;-89
2021/01/26 01:02:22;;;;;;;;;;;;;;;-144.34;100.00;60189.88;4961549;28;20575;-90
2021/01/26 01:04:50;;;;;;;;;;;;;;;-144.34;100.00;60189.88;4957289;28;19918;-89
2021/01/26 01:07:15;;;;;;;;;;;;;;;-144.34;100.00;60189.88;4958129;28;20058;-89
2021/01/26 01:09:43;;;;;;;;;;;;;;;-144.34;100.00;60189.88;4957890;28;20357;-90
2021/01/26 01:12:09;;;;;;;;;;;;;;;-144.34;100.00;60189.88;4957556;28;20017;-90
2021/01/26 01:14:39;;;;;;;;;;;;;;;-144.34;100.00;60189.88;4957645;28;19949;-90
2021/01/26 01:17:07;;;;;;;;;;;;;;;-144.34;100.00;60189.88;4973386;28;19918;-90
2021/01/26 01:22:23;;;;;;;;;;;;;;;-144.34;100.00;60189.88;4974616;28;19921;-90
2021/01/26 01:24:51;;;;;;;;;;;;;;;-144.34;100.00;60189.88;4957453;28;20294;-90
2021/01/26 01:27:17;;;;;;;;;;;;;;;-144.34;100.00;60189.88;4959265;28;19914;-91
2021/01/26 01:29:43;;;;;;;;;;;;;;;-144.34;100.00;60189.88;4942905;28;19914;-90
2021/01/26 01:32:09;;;;;;;;;;;;;;;-144.34;100.00;60189.88;4958218;28;19969;-90
2021/01/26 01:34:35;;;;;;;;;;;;;;;-144.34;100.00;60189.88;4957398;28;19914;-90
2021/01/26 01:37:00;;;;;;;;;;;;;;;-144.34;100.00;60189.88;4957336;28;20284;-90
2021/01/26 01:39:26;;;;;;;;;;;;;;;-144.34;100.00;60189.88;4941358;28;19914;-90
2021/01/26 01:41:53;;;;;;;;;;;;;;;-144.34;100.00;60189.88;4956858;28;19965;-90
2021/01/26 01:44:19;;;;;;;;;;;;;;;-144.34;100.00;60189.88;4957286;28;19922;-90
2021/01/26 01:46:46;;;;;;;;;;;;;;;-144.34;100.00;60189.88;4957472;28;20381;-90
2021/01/26 01:49:13;;;;;;;;;;;;;;;-144.34;100.00;60189.88;4957195;28;20373;-91
2021/01/26 01:51:39;;;;;;;;;;;;;;;-144.34;100.00;60189.88;4958751;28;19918;-91
2021/01/26 01:54:10;;;;;;;;;;;;;;;-144.34;100.00;60189.88;4960808;28;19984;-91
2021/01/26 01:56:38;;;;;;;;;;;;;;;-144.34;100.00;60189.88;4960379;28;19918;-91
2021/01/26 01:59:07;;;;;;;;;;;;;;;-144.34;100.00;60189.88;4960059;28;19960;-91
2021/01/26 02:01:33;;;;;;;;;;;;;;;-144.34;100.00;60189.88;4960506;28;19996;-91
2021/01/26 02:03:59;;;;;;;;;;;;;;;-144.34;100.00;60189.88;4976209;28;19957;-91
2021/01/26 02:06:26;;;;;;;;;;;;;;;-144.34;100.00;60189.88;4960209;28;19921;-90
2021/01/26 02:08:55;;;;;;;;;;;;;;;-144.34;100.00;60189.88;4960762;28;20025;-91
2021/01/26 02:11:24;;;;;;;;;;;;;;;-144.34;100.00;60189.88;4960939;28;19914;-91
2021/01/26 02:13:50;;;;;;;;;;;;;;;-144.34;100.00;60189.88;4976168;28;20376;-90
2021/01/26 02:16:34;;;;;;;;;;;;;;;-144.34;100.00;60189.88;4978390;28;19918;-90
2021/01/26 02:19:19;;;;;;;;;;;;;;;-144.34;100.00;60189.88;4980176;28;19913;-90
2021/01/26 02:21:57;;;;;;;;;;;;;;;-144.34;100.00;60189.88;4980105;28;20369;-90
2021/01/26 02:24:25;;;;;;;;;;;;;;;-144.34;100.00;60189.88;4980239;28;19914;-91
2021/01/26 02:27:05;;;;;;;;;;;;;;;-144.34;100.00;60189.88;4963851;28;20017;-90
2021/01/26 02:29:49;;;;;;;;;;;;;;;-144.34;100.00;60189.88;4979993;28;19914;-90
2021/01/26 02:32:15;;;;;;;;;;;;;;;-144.34;100.00;60189.88;4979728;28;19913;-90
2021/01/26 02:34:59;;;;;;;;;;;;;;;-144.34;100.00;60189.88;4979591;28;20404;-90
2021/01/26 02:37:43;;;;;;;;;;;;;;;-144.34;100.00;60189.88;4979413;28;19922;-91
2021/01/26 02:40:25;;;;;;;;;;;;;;;-144.34;100.00;60189.88;4979358;28;19917;-91
2021/01/26 02:43:03;;;;;;;;;;;;;;;-144.34;100.00;60189.88;4963707;28;20008;-92
2021/01/26 02:45:33;;;;;;;;;;;;;;;-144.34;100.00;60189.88;4979252;28;19918;-90
2021/01/26 02:48:11;;;;;;;;;;;;;;;-144.34;100.00;60189.88;4963054;28;19918;-90
2021/01/26 02:51:17;;;;;;;;;;;;;;;-144.34;100.00;60189.88;4979145;28;19968;-90
2021/01/26 02:53:46;;;;;;;;;;;;;;;-144.34;100.00;60189.88;4955481;28;19922;-90
2021/01/26 02:56:18;;;;;;;;;;;;;;;-144.34;100.00;60189.88;4975659;28;19918;-90
2021/01/26 02:58:56;;;;;;;;;;;;;;;-144.34;100.00;60189.88;4976026;28;19914;-90
2021/01/26 03:01:21;;;;;;;;;;;;;;;-144.34;100.00;60189.88;4959864;28;20007;-91
2021/01/26 03:04:06;;;;;;;;;;;;;;;-144.34;100.00;60189.88;4960038;28;19961;-91
2021/01/26 03:06:32;;;;;;;;;;;;;;;-144.34;100.00;60189.88;4959672;28;19937;-91
2021/01/26 03:09:12;;;;;;;;;;;;;;;-144.34;100.00;60189.88;4959681;28;20378;-90
2021/01/26 03:11:40;;;;;;;;;;;;;;;-144.34;100.00;60189.88;4959455;28;19914;-90
2021/01/26 03:14:17;;;;;;;;;;;;;;;-144.34;100.00;60189.88;4975592;28;19949;-90
2021/01/26 03:16:44;;;;;;;;;;;;;;;-144.34;100.00;60189.88;4959223;28;19919;-91
2021/01/26 03:19:19;;;;;;;;;;;;;;;-144.34;100.00;60189.88;4964264;28;19949;-90
2021/01/26 03:21:47;;;;;;;;;;;;;;;-144.34;100.00;60189.88;4975841;28;19921;-91
2021/01/26 03:24:20;;;;;;;;;;;;;;;-144.34;100.00;60189.88;4959494;28;19918;-92
2021/01/26 03:26:45;;;;;;;;;;;;;;;-144.34;100.00;60189.88;4958235;28;19965;-90
2021/01/26 03:29:10;;;;;;;;;;;;;;;-144.34;100.00;60189.88;4959262;28;19918;-92
2021/01/26 03:31:38;;;;;;;;;;;;;;;-144.34;100.00;60189.88;4959476;28;19922;-91
2021/01/26 03:34:04;;;;;;;;;;;;;;;-144.34;100.00;60189.88;4959179;28;19980;-91
2021/01/26 03:36:29;;;;;;;;;;;;;;;-144.34;100.00;60189.88;4958959;28;19968;-91
2021/01/26 03:38:57;;;;;;;;;;;;;;;-144.34;100.00;60189.88;4959685;28;19970;-91
2021/01/26 03:41:24;;;;;;;;;;;;;;;-144.34;100.00;60189.88;4959580;28;19914;-91
2021/01/26 03:43:50;;;;;;;;;;;;;;;-144.34;100.00;60189.88;4943639;28;19996;-91
2021/01/26 03:46:24;;;;;;;;;;;;;;;-144.34;100.00;60189.88;4959291;28;19918;-91
2021/01/26 03:49:02;;;;;;;;;;;;;;;-144.34;100.00;60189.88;4975536;28;19922;-92
2021/01/26 03:51:37;;;;;;;;;;;;;;;-144.34;100.00;60189.88;4959186;28;19914;-91
2021/01/26 03:54:11;;;;;;;;;;;;;;;-144.34;100.00;60189.88;4958641;28;19922;-91
2021/01/26 03:56:36;;;;;;;;;;;;;;;-144.34;100.00;60189.88;4958891;28;19929;-91
2021/01/26 03:59:14;;;;;;;;;;;;;;;-144.34;100.00;60189.88;4959002;28;20297;-91
2021/01/26 04:01:40;;;;;;;;;;;;;;;-144.34;100.00;60189.88;4958757;28;19914;-91
2021/01/26 04:04:18;;;;;;;;;;;;;;;-144.34;100.00;60189.88;4958758;28;19941;-91
2021/01/26 04:06:48;;;;;;;;;;;;;;;-144.34;100.00;60189.88;4958576;28;19914;-91
2021/01/26 04:09:19;;;;;;;;;;;;;;;-144.34;100.00;60189.88;4958453;28;19922;-92
2021/01/26 04:11:44;;;;;;;;;;;;;;;-144.34;100.00;60189.88;4942567;28;20381;-90
2021/01/26 04:14:12;;;;;;;;;;;;;;;-144.34;100.00;60189.88;4958700;28;19921;-91
2021/01/26 04:16:58;;;;;;;;;;;;;;;-144.34;100.00;60189.88;4958895;28;19950;-91
2021/01/26 04:19:24;;;;;;;;;;;;;;;-144.34;100.00;60189.88;4958733;28;19918;-91
2021/01/26 04:21:56;;;;;;;;;;;;;;;-144.34;100.00;60189.88;4959153;28;19957;-92
2021/01/26 04:24:21;;;;;;;;;;;;;;;-144.34;100.00;60189.88;4959128;28;19914;-91
2021/01/26 04:26:47;;;;;;;;;;;;;;;-144.34;100.00;60189.88;4942586;28;20329;-90
2021/01/26 04:29:17;;;;;;;;;;;;;;;-144.34;100.00;60189.88;4958516;28;19914;-91
2021/01/26 04:31:42;;;;;;;;;;;;;;;-144.34;100.00;60189.88;4958812;28;19914;-91
2021/01/26 04:34:08;;;;;;;;;;;;;;;-144.34;100.00;60189.88;4957566;28;20444;-91
2021/01/26 04:36:33;;;;;;;;;;;;;;;-144.34;100.00;60189.88;4977374;28;19918;-90
2021/01/26 04:39:17;;;;;;;;;;;;;;;-144.34;100.00;60189.88;4977635;28;19914;-91
2021/01/26 04:41:53;;;;;;;;;;;;;;;-144.34;100.00;60189.88;4977714;28;19914;-90
2021/01/26 04:44:38;;;;;;;;;;;;;;;-144.34;100.00;60189.88;4977574;28;19917;-90
2021/01/26 04:47:23;;;;;;;;;;;;;;;-144.34;100.00;60189.88;4977526;28;19936;-91
2021/01/26 04:49:59;;;;;;;;;;;;;;;-144.34;100.00;60189.88;4978095;28;19937;-91
2021/01/26 04:52:46;;;;;;;;;;;;;;;-144.34;100.00;60189.88;4981565;28;20377;-91
2021/01/26 04:55:27;;;;;;;;;;;;;;;-144.34;100.00;60189.88;4979260;28;19917;-91
2021/01/26 04:57:56;;;;;;;;;;;;;;;-144.34;100.00;60189.88;4973787;28;20300;-92
2021/01/26 05:03:44;;;;;;;;;;;;;;;-144.34;100.00;60189.88;4917082;29;19966;-92
2021/01/26 05:06:11;;;;;;;;;;;;;;;-144.34;100.00;60189.88;4995218;28;19920;-92
2021/01/26 05:08:40;;;;;;;;;;;;;;;-144.34;100.00;60189.88;4964237;28;19914;-92
2021/01/26 05:11:22;;;;;;;;;;;;;;;-144.34;100.00;60189.88;4962609;28;19918;-91
2021/01/26 05:13:51;;;;;;;;;;;;;;;-144.34;100.00;60189.88;4963029;28;19921;-91
2021/01/26 05:16:32;;;;;;;;;;;;;;;-144.34;100.00;60189.88;4962253;28;19918;-91
2021/01/26 05:19:16;;;;;;;;;;;;;;;-144.34;100.00;60189.88;4978582;28;19921;-91
2021/01/26 05:21:46;;;;;;;;;;;;;;;-144.34;100.00;60189.88;4978049;28;20366;-91
2021/01/26 05:24:14;;;;;;;;;;;;;;;-144.34;100.00;60189.88;4961821;28;19914;-91
2021/01/26 05:26:40;;;;;;;;;;;;;;;-144.34;100.00;60189.88;4962021;28;19992;-92
2021/01/26 05:29:05;;;;;;;;;;;;;;;-144.34;100.00;60189.88;4965186;28;19952;-91
2021/01/26 05:31:31;;;;;;;;;;;;;;;-144.34;100.00;60189.88;4961047;28;19920;-91
2021/01/26 05:34:06;;;;;;;;;;;;;;;-144.34;100.00;60189.88;4961810;28;19920;-91
2021/01/26 05:36:31;;;;;;;;;;;;;;;-144.34;100.00;60189.88;4962432;28;20277;-91
2021/01/26 05:38:59;;;;;;;;;;;;;;;-144.34;100.00;60189.88;4962678;28;19920;-91
2021/01/26 05:41:24;;;;;;;;;;;;;;;-144.34;100.00;60189.88;4961512;28;19913;-91
2021/01/26 05:43:51;;;;;;;;;;;;;;;-144.34;100.00;60189.88;4962103;28;20663;-91
2021/01/26 05:46:36;;;;;;;;;;;;;;;-144.34;100.00;60189.88;4961779;28;20373;-91
2021/01/26 05:49:02;;;;;;;;;;;;;;;-144.34;100.00;60189.88;4977641;28;19921;-91
2021/01/26 05:51:29;;;;;;;;;;;;;;;-144.34;100.00;60189.88;4965153;28;19918;-91
2021/01/26 05:54:06;;;;;;;;;;;;;;;-144.34;100.00;60189.88;4967498;28;19996;-91
2021/01/26 05:56:32;;;;;;;;;;;;;;;-144.34;100.00;60189.88;4967174;28;19917;-92
2021/01/26 05:59:00;;;;;;;;;;;;;;;-144.34;100.00;60189.88;4966230;28;20429;-92
2021/01/26 06:01:27;;;;;;;;;;;;;;;-144.34;100.00;60189.88;4965903;28;19921;-91
2021/01/26 06:04:20;;;;;;;;;;;;;;;-144.34;100.00;60189.88;4965453;28;20279;-90
2021/01/26 06:06:52;;;;;;;;;;;;;;;-144.34;100.00;60189.88;4972065;28;19986;-90
2021/01/26 06:09:32;;;;;;;;;;;;;;;-144.34;100.00;60189.88;4979461;28;19917;-90
2021/01/26 06:12:16;;;;;;;;;;;;;;;-144.34;100.00;60189.88;4963416;28;19936;-90
2021/01/26 06:15:02;;;;;;;;;;;;;;;-144.34;100.00;60189.88;4980003;28;19952;-89
2021/01/26 06:17:28;;;;;;;;;;;;;;;-144.34;100.00;60189.88;4963644;28;19968;-89
2021/01/26 06:20:20;;;;;;;;;;;;;;;-144.34;100.00;60189.88;4963234;28;19913;-89
2021/01/26 06:22:46;;;;;;;;;;;;;;;-144.34;100.00;60189.88;4975931;28;20328;-89
2021/01/26 06:25:31;;;;;;;;;;;;;;;-144.34;100.00;60189.88;4997209;28;19921;-91
2021/01/26 06:27:56;;;;;;;;;;;;;;;-144.34;100.00;60189.88;4980691;28;19957;-90
2021/01/26 06:30:40;;;;;;;;;;;;;;;-144.34;100.00;60189.88;4980584;28;20361;-91
2021/01/26 06:33:15;;;;;;;;;;;;;;;-144.34;100.00;60189.88;4981828;28;20430;-93
2021/01/26 06:35:43;;;;;;;;;;;;;;;-144.34;100.00;60189.88;4981957;28;20433;-91
2021/01/26 06:38:16;;;;;;;;;;;;;;;-144.34;100.00;60189.88;4997546;28;19918;-92
2021/01/26 06:40:57;;;;;;;;;;;;;;;-144.34;100.00;60189.88;4980756;28;19964;-93
2021/01/26 06:43:30;;;;;;;;;;;;;;;-144.34;100.00;60189.88;4980583;28;19913;-91
2021/01/26 06:46:14;;;;;;;;;;;;;;;-144.34;100.00;60189.88;4996555;28;19913;-93
2021/01/26 06:49:04;;;;;;;;;;;;;;;-144.34;100.00;60189.88;4981396;28;19914;-91
2021/01/26 06:51:36;;;;;;;;;;;;;;;-144.34;100.00;60189.88;4981215;28;19914;-93
2021/01/26 06:54:31;;;;;;;;;;;;;;;-144.34;100.00;60189.88;4997553;28;19928;-91
2021/01/26 06:57:29;;;;;;;;;;;;;;;-144.34;100.00;60189.88;4982696;28;19972;-94
2021/01/26 07:00:54;;;;;;;;;;;;;;;-144.34;100.00;60189.88;4966876;28;19914;-94
2021/01/26 07:03:26;;;;;;;;;;;;;;;-144.34;100.00;60189.88;4992504;28;19914;-94
2021/01/26 07:06:12;;;;;;;;;;;;;;;-144.34;100.00;60189.88;4980331;28;20345;-94
2021/01/26 07:08:43;;;;;;;;;;;;;;;-144.34;100.00;60189.88;4988431;28;19921;-93
2021/01/26 07:11:21;;;;;;;;;;;;;;;-144.34;100.00;60189.88;4992293;28;19922;-93
2021/01/26 07:13:53;;;;;;;;;;;;;;;-144.34;100.00;60189.88;4976243;28;19989;-93
2021/01/26 07:16:22;;;;;;;;;;;;;;;-144.34;100.00;60189.88;5013723;28;19922;-93
2021/01/26 07:18:51;;;;;;;;;;;;;;;-144.34;100.00;60189.88;5011558;28;19948;-94
2021/01/26 07:21:34;;;;;;;;;;;;;;;-144.34;100.00;60189.88;4996794;28;19961;-93
2021/01/26 07:24:02;;;;;;;;;;;;;;;-144.34;100.00;60189.88;4982515;28;19926;-93
2021/01/26 07:26:33;;;;;;;;;;;;;;;-144.34;100.00;60189.88;4997125;28;19922;-93
2021/01/26 07:29:04;;;;;;;;;;;;;;;-144.34;100.00;60189.88;4994890;28;19949;-92
2021/01/26 07:31:33;;;;;;;;;;;;;;;-144.34;100.00;60189.88;5000887;28;19941;-95
2021/01/26 07:34:05;;;;;;;;;;;;;;;-144.34;100.00;60189.88;4979781;28;19926;-92
2021/01/26 07:36:40;;;;;;;;;;;;;;;-144.34;100.00;60189.88;5014387;28;19940;-93
2021/01/26 07:39:15;;;;;;;;;;;;;;;-144.34;100.00;60189.88;4985156;28;19957;-94
2021/01/26 07:41:47;;;;;;;;;;;;;;;-144.34;100.00;60189.88;4999478;28;19930;-94
2021/01/26 07:44:29;;;;;;;;;;;;;;;-144.34;100.00;60189.88;4984104;28;19997;-94
2021/01/26 07:47:18;;;;;;;;;;;;;;;-144.34;100.00;60189.88;4998471;28;19937;-93
2021/01/26 07:50:05;;;;;;;;;;;;;;;-144.34;100.00;60189.88;5010939;28;19922;-93
2021/01/26 07:58:50;;;;;;;;;;;;;;;-144.34;100.00;60189.88;4959242;29;19914;-93
2021/01/26 08:01:28;;;;;;;;;;;;;;;-144.34;100.00;60189.88;4964023;28;20158;-93
2021/01/26 08:10:25;;;;;;;;;;;;;;;-144.34;100.00;60189.88;4969817;28;19933;-93
2021/01/26 08:18:31;;;;;;;;;;;;;;;-144.34;100.00;60189.88;5024822;23;19929;-94
2021/01/26 08:20:57;;;;;;;;;;;;;;;-144.34;100.00;60189.88;4980388;28;19937;-93
2021/01/26 08:23:24;;;;;;;;;;;;;;;-144.34;100.00;60189.88;4978814;28;19921;-93
2021/01/26 08:25:54;;;;;;;;;;;;;;;-144.34;100.00;60189.88;4990570;28;19921;-94
2021/01/26 08:28:43;;;;;;;;;;;;;;;-144.34;100.00;60189.88;4976421;28;20353;-93
2021/01/26 08:31:24;;;;;;;;;;;;;;;-144.34;100.00;60189.88;5007440;28;20370;-94
2021/01/26 08:33:51;;;;;;;;;;;;;;;-144.34;100.00;60189.88;4986140;28;19921;-95
2021/01/26 08:36:31;;;;;;;;;;;;;;;-144.34;100.00;60189.88;4996056;28;20193;-93
2021/01/26 08:38:57;;;;;;;;;;;;;;;-144.34;100.00;60189.88;4989699;28;19921;-94
2021/01/26 08:41:41;;;;;;;;;;;;;;;-144.34;100.00;60189.88;4977991;28;19921;-93
2021/01/26 08:44:08;;;;;;;;;;;;;;;-144.34;100.00;60189.88;4978801;28;20749;-92
2021/01/26 08:46:35;;;;;;;;;;;;;;;-144.34;100.00;60189.88;4967764;28;19929;-93
2021/01/26 08:49:02;;;;;;;;;;;;;;;-144.34;100.00;60189.88;4984963;28;19906;-93
2021/01/26 08:51:27;;;;;;;;;;;;;;;-144.34;100.00;60189.88;4984619;28;19926;-93
2021/01/26 08:53:53;;;;;;;;;;;;;;;-144.34;100.00;60189.88;4977322;28;19931;-94
2021/01/26 08:56:27;;;;;;;;;;;;;;;-144.34;100.00;60189.88;4977558;28;19921;-93
2021/01/26 08:58:55;;;;;;;;;;;;;;;-144.34;100.00;60189.88;5007240;28;19914;-93
2021/01/26 09:01:24;;;;;;;;;;;;;;;-144.34;100.00;60189.88;4974210;28;20632;-93
2021/01/26 09:04:09;;;;;;;;;;;;;;;-144.34;100.00;60189.88;4987183;28;19917;-92
2021/01/26 09:06:43;;;;;;;;;;;;;;;-144.34;100.00;60189.88;4963143;28;19925;-92
2021/01/26 09:09:10;;;;;;;;;;;;;;;-144.34;100.00;60189.88;4990412;28;19921;-94
2021/01/26 09:11:48;;;;;;;;;;;;;;;-144.34;100.00;60189.88;4980186;28;20318;-92
2021/01/26 09:14:33;;;;;;;;;;;;;;;-144.34;100.00;60189.88;4985760;28;19921;-93
2021/01/26 09:17:03;;;;;;;;;;;;;;;-144.34;100.00;60189.88;4984977;28;19926;-94
2021/01/26 09:19:39;;;;;;;;;;;;;;;-144.34;100.00;60189.88;4979918;28;19926;-94
2021/01/26 09:22:06;;;;;;;;;;;;;;;-144.34;100.00;60189.88;4994601;28;19929;-93
2021/01/26 09:24:32;;;;;;;;;;;;;;;-144.34;100.00;60189.88;4994604;28;19929;-95
2021/01/26 09:34:12;;;;;;;;;;;;;;;-144.34;100.00;60189.88;5012348;28;19928;-94
2021/01/26 09:36:20;;;;;;;;;;;;;;;-144.34;100.00;60189.88;4983497;28;20366;-94
2021/01/26 09:38:52;;;;;;;;;;;;;;;-144.34;100.00;60189.88;4970931;28;20007;-94
2021/01/26 09:41:17;;;;;;;;;;;;;;;-144.34;100.00;60189.88;4970485;28;19938;-93
2021/01/26 09:43:46;;;;;;;;;;;;;;;-144.34;100.00;60189.88;4981892;28;19923;-93
2021/01/26 09:46:14;;;;;;;;;;;;;;;-144.34;100.00;60189.88;4982834;28;19921;-93
2021/01/26 09:48:44;;;;;;;;;;;;;;;-144.34;100.00;60189.88;4979243;28;19929;-92
2021/01/26 09:51:35;;;;;;;;;;;;;;;-144.34;100.00;60189.88;4977104;28;19922;-93
2021/01/26 09:54:03;;;;;;;;;;;;;;;-144.34;100.00;60189.88;4976066;28;19978;-94
2021/01/26 21:09:05;;;;;;;;;;;;;;;-144.34;100.00;60189.88;4982561;28;19952;-88
2021/01/26 21:11:30;;;;;;;;;;;;;;;-144.34;100.00;60189.88;4971362;28;20028;-91
2021/01/26 21:13:56;;;;;;;;;;;;;;;-144.34;100.00;60189.88;4970753;28;19924;-90
2021/01/26 21:16:21;;;;;;;;;;;;;;;-144.34;100.00;60189.88;4968483;28;19926;-90
2021/01/26 21:18:47;;;;;;;;;;;;;;;-144.34;100.00;60189.88;4983927;28;20375;-89
2021/01/26 21:21:13;;;;;;;;;;;;;;;-144.34;100.00;60189.88;4951326;28;19921;-88
2021/01/26 21:23:39;;;;;;;;;;;;;;;-144.34;100.00;60189.88;4956611;28;20397;-90
2021/01/26 21:26:05;;;;;;;;;;;;;;;-144.34;100.00;60189.88;4967667;28;19921;-89
2021/01/26 21:28:31;;;;;;;;;;;;;;;-144.34;100.00;60189.88;4958967;28;20617;-90
2021/01/26 21:30:56;;;;;;;;;;;;;;;-144.34;100.00;60189.88;4968726;28;19922;-89
2021/01/26 21:33:23;;;;;;;;;;;;;;;-144.34;100.00;60189.88;4967159;28;19921;-89
2021/01/26 21:35:52;;;;;;;;;;;;;;;-144.34;100.00;60189.88;4967114;28;19921;-89
2021/01/26 21:38:18;;;;;;;;;;;;;;;-144.34;100.00;60189.88;4952308;28;19918;-89
2021/01/26 21:40:43;;;;;;;;;;;;;;;-144.34;100.00;60189.88;4984109;28;19922;-89
2021/01/26 21:43:09;;;;;;;;;;;;;;;-144.34;100.00;60189.88;4983985;28;20032;-89
2021/01/26 21:45:36;;;;;;;;;;;;;;;-144.34;100.00;60189.88;4984020;28;19924;-88
2021/01/26 21:48:01;;;;;;;;;;;;;;;-144.34;100.00;60189.88;4984412;28;19914;-88
2021/01/26 21:50:30;;;;;;;;;;;;;;;-144.34;100.00;60189.88;4966726;28;20407;-89
2021/01/26 21:52:57;;;;;;;;;;;;;;;-144.34;100.00;60189.88;4978466;28;19976;-89
2021/01/26 21:55:23;;;;;;;;;;;;;;;-144.34;100.00;60189.88;4968764;28;19918;-89
2021/01/26 21:57:49;;;;;;;;;;;;;;;-144.34;100.00;60189.88;4983931;28;19925;-89
2021/01/26 22:00:15;;;;;;;;;;;;;;;-144.34;100.00;60189.88;4959408;28;20657;-89
2021/01/26 22:02:41;;;;;;;;;;;;;;;-144.34;100.00;60189.88;4957676;28;20366;-89
2021/01/26 22:05:06;;;;;;;;;;;;;;;-144.34;100.00;60189.88;4958855;28;19914;-89
2021/01/26 22:07:32;;;;;;;;;;;;;;;-144.34;100.00;60189.88;4950484;28;19926;-88
2021/01/26 22:09:57;;;;;;;;;;;;;;;-144.34;100.00;60189.88;4981007;28;19945;-90
2021/01/26 22:12:23;;;;;;;;;;;;;;;-144.34;100.00;60189.88;4985823;28;19953;-90
2021/01/26 22:14:49;;;;;;;;;;;;;;;-144.34;100.00;60189.88;4968885;28;20372;-89
2021/01/26 22:17:14;;;;;;;;;;;;;;;-144.34;100.00;60189.88;4968684;28;20006;-90
2021/01/26 22:19:40;;;;;;;;;;;;;;;-144.34;100.00;60189.88;4957390;28;19924;-90
2021/01/26 22:22:05;;;;;;;;;;;;;;;-144.34;100.00;60189.88;4985723;28;19921;-90
2021/01/26 22:24:31;;;;;;;;;;;;;;;-144.34;100.00;60189.88;4968713;28;19992;-90
2021/01/26 22:26:56;;;;;;;;;;;;;;;-144.34;100.00;60189.88;4957483;28;19918;-89
2021/01/26 22:29:22;;;;;;;;;;;;;;;-144.34;100.00;60189.88;4984454;28;20467;-89
2021/01/26 22:31:47;;;;;;;;;;;;;;;-144.34;100.00;60189.88;4968326;28;19917;-90
2021/01/26 22:34:14;;;;;;;;;;;;;;;-144.34;100.00;60189.88;4963580;28;19977;-90
2021/01/26 22:36:39;;;;;;;;;;;;;;;-144.34;100.00;60189.88;4984701;28;19921;-89
2021/01/26 22:39:05;;;;;;;;;;;;;;;-144.34;100.00;60189.88;4961619;28;19968;-89
2021/01/26 22:41:30;;;;;;;;;;;;;;;-144.34;100.00;60189.88;4988118;28;19929;-89
2021/01/26 22:43:56;;;;;;;;;;;;;;;-144.34;100.00;60189.88;4987867;28;19924;-89
2021/01/26 22:46:21;;;;;;;;;;;;;;;-144.34;100.00;60189.88;4987131;28;19933;-90
2021/01/26 22:48:47;;;;;;;;;;;;;;;-144.34;100.00;60189.88;4971450;28;19914;-89
2021/01/26 22:51:13;;;;;;;;;;;;;;;-144.34;100.00;60189.88;4954850;28;19949;-90
2021/01/26 22:53:38;;;;;;;;;;;;;;;-144.34;100.00;60189.88;4987456;28;19941;-89
2021/01/26 22:56:03;;;;;;;;;;;;;;;-144.34;100.00;60189.88;4986843;28;19965;-89
2021/01/26 22:58:29;;;;;;;;;;;;;;;-144.34;100.00;60189.88;4960824;28;19921;-88
2021/01/26 23:00:54;;;;;;;;;;;;;;;-144.34;100.00;60189.88;4958719;28;20032;-89
2021/01/26 23:03:21;;;;;;;;;;;;;;;-144.34;100.00;60189.88;4953974;28;20011;-89
2021/01/26 23:05:46;;;;;;;;;;;;;;;-144.34;100.00;60189.88;4986753;28;19940;-89
2021/01/26 23:08:13;;;;;;;;;;;;;;;-144.34;100.00;60189.88;4958813;28;19988;-88
2021/01/26 23:10:39;;;;;;;;;;;;;;;-144.34;100.00;60189.88;4972063;28;20048;-88
2021/01/26 23:13:05;;;;;;;;;;;;;;;-144.34;100.00;60189.88;4984284;28;19926;-89
2021/01/26 23:15:32;;;;;;;;;;;;;;;-144.34;100.00;60189.88;4972494;28;20390;-88
2021/01/26 23:17:57;;;;;;;;;;;;;;;-144.34;100.00;60189.88;4955135;28;20648;-88
2021/01/26 23:20:24;;;;;;;;;;;;;;;-144.34;100.00;60189.88;4970749;28;19918;-87
2021/01/26 23:22:50;;;;;;;;;;;;;;;-144.34;100.00;60189.88;4970808;28;20380;-89
2021/01/26 23:25:17;;;;;;;;;;;;;;;-144.34;100.00;60189.88;4988672;28;20001;-90
2021/01/26 23:27:42;;;;;;;;;;;;;;;-144.34;100.00;60189.88;4972593;28;19918;-90
2021/01/26 23:30:08;;;;;;;;;;;;;;;-144.34;100.00;60189.88;4988752;28;19925;-90
2021/01/26 23:32:34;;;;;;;;;;;;;;;-144.34;100.00;60189.88;4973357;28;19918;-89
2021/01/26 23:34:59;;;;;;;;;;;;;;;-144.34;100.00;60189.88;4990466;28;20244;-90
2021/01/26 23:37:25;;;;;;;;;;;;;;;-144.34;100.00;60189.88;4974566;28;19918;-89
2021/01/26 23:39:50;;;;;;;;;;;;;;;-144.34;100.00;60189.88;4989462;28;20021;-89
2021/01/26 23:42:16;;;;;;;;;;;;;;;-144.34;100.00;60189.88;4964964;28;20281;-90
2021/01/26 23:44:41;;;;;;;;;;;;;;;-144.34;100.00;60189.88;4972632;28;19918;-89
2021/01/26 23:47:07;;;;;;;;;;;;;;;-144.34;100.00;60189.88;4989902;28;19917;-89
2021/01/26 23:49:33;;;;;;;;;;;;;;;-144.34;100.00;60189.88;4990288;28;19924;-89
2021/01/26 23:51:59;;;;;;;;;;;;;;;-144.34;100.00;60189.88;4989532;28;19913;-89
2021/01/26 23:54:24;;;;;;;;;;;;;;;-144.34;100.00;60189.88;4972851;28;20284;-89
2021/01/26 23:56:49;;;;;;;;;;;;;;;-144.34;100.00;60189.88;4971588;28;19918;-89
2021/01/26 23:59:15;;;;;;;;;;;;;;;-144.34;100.00;60189.88;4988291;28;19944;-90
